createdAt,value
2023-01-22T00:00:08.765Z,7.97
2023-01-22T00:02:36.869Z,7.72
2023-01-22T00:05:04.893Z,7.50
2023-01-22T00:07:31.812Z,7.78
2023-01-22T00:09:59.990Z,7.88
2023-01-22T00:12:27.664Z,7.32
2023-01-22T00:14:54.499Z,8.00
2023-01-22T00:17:21.330Z,7.03
2023-01-22T00:19:48.191Z,8.10
2023-01-22T00:22:14.936Z,8.10
2023-01-22T00:24:41.737Z,8.38
2023-01-22T00:27:08.554Z,8.40
2023-01-22T00:29:35.478Z,7.47
2023-01-22T00:32:02.611Z,7.63
2023-01-22T00:34:30.056Z,8.48
2023-01-22T00:36:56.816Z,8.05
2023-01-22T00:39:23.577Z,9.20
2023-01-22T00:41:50.315Z,8.35
2023-01-22T00:44:17.265Z,8.23
2023-01-22T00:46:44.073Z,7.45
2023-01-22T00:49:12.237Z,7.57
2023-01-22T00:51:39.572Z,7.32
2023-01-22T00:54:08.745Z,8.13
2023-01-22T00:56:35.454Z,7.72
2023-01-22T00:59:02.193Z,7.80
2023-01-22T01:01:29.051Z,7.53
2023-01-22T01:03:55.823Z,8.30
2023-01-22T01:06:22.774Z,7.75
2023-01-22T01:08:50.289Z,7.40
2023-01-22T01:11:25.084Z,8.50
2023-01-22T01:13:53.162Z,8.38
2023-01-22T01:16:23.806Z,8.82
2023-01-22T01:18:50.689Z,8.70
2023-01-22T01:21:19.163Z,8.43
2023-01-22T01:23:46.419Z,9.47
2023-01-22T01:26:16.184Z,7.97
2023-01-22T01:28:45.254Z,8.80
2023-01-22T01:31:15.523Z,8.65
2023-01-22T01:33:42.893Z,7.80
2023-01-22T01:36:40.472Z,7.97
2023-01-22T01:39:09.711Z,7.65
2023-01-22T01:41:36.553Z,9.55
2023-01-22T01:44:11.528Z,8.65
2023-01-22T01:46:46.895Z,8.65
2023-01-22T01:49:26.136Z,8.27
2023-01-22T01:51:56.421Z,8.63
2023-01-22T01:54:23.574Z,7.82
2023-01-22T01:56:55.460Z,8.68
2023-01-22T01:59:23.288Z,7.70
2023-01-22T02:01:54.507Z,7.50
2023-01-22T02:04:22.656Z,7.85
2023-01-22T02:06:49.961Z,7.70
2023-01-22T02:09:17.081Z,7.78
2023-01-22T02:11:44.719Z,7.60
2023-01-22T02:14:19.106Z,8.85
2023-01-22T02:16:46.072Z,7.78
2023-01-22T02:19:12.789Z,8.50
2023-01-22T02:21:44.852Z,7.60
2023-01-22T02:24:16.516Z,8.25
2023-01-22T02:26:45.434Z,7.00
2023-01-22T02:29:14.162Z,7.78
2023-01-22T02:31:42.288Z,7.57
2023-01-22T02:34:10.980Z,8.23
2023-01-22T02:36:39.402Z,7.97
2023-01-22T02:39:07.007Z,8.10
2023-01-22T02:41:33.760Z,8.68
2023-01-22T02:44:00.513Z,7.97
2023-01-22T02:46:27.412Z,8.40
2023-01-22T02:48:55.039Z,8.60
2023-01-22T02:51:21.875Z,7.75
2023-01-22T02:53:48.643Z,8.13
2023-01-22T02:56:15.437Z,8.50
2023-01-22T02:58:42.143Z,8.35
2023-01-22T03:01:20.859Z,9.40
2023-01-22T03:03:55.996Z,9.32
2023-01-22T03:08:56.419Z,9.05
2023-01-22T03:11:24.283Z,8.70
2023-01-22T03:14:10.646Z,8.70
2023-01-22T03:16:56.184Z,8.60
2023-01-22T03:19:42.631Z,9.15
2023-01-22T03:22:10.146Z,8.15
2023-01-22T03:24:36.912Z,10.68
2023-01-22T03:27:04.664Z,10.48
2023-01-22T03:29:31.479Z,9.60
2023-01-22T03:31:58.232Z,10.82
2023-01-22T03:34:26.327Z,10.45
2023-01-22T03:36:53.085Z,9.77
2023-01-22T03:39:19.784Z,9.63
2023-01-22T03:41:46.495Z,10.00
2023-01-22T03:44:14.245Z,9.95
2023-01-22T03:46:41.033Z,9.65
2023-01-22T03:49:08.731Z,10.38
2023-01-22T03:51:35.727Z,10.00
2023-01-22T03:54:02.456Z,10.73
2023-01-22T03:56:31.177Z,10.90
2023-01-22T03:58:58.195Z,9.57
2023-01-22T04:01:27.123Z,9.73
2023-01-22T04:03:54.934Z,9.10
2023-01-22T04:06:22.772Z,9.25
2023-01-22T04:08:51.604Z,9.00
2023-01-22T04:11:18.687Z,9.65
2023-01-22T04:13:45.928Z,8.35
2023-01-22T04:16:13.949Z,9.07
2023-01-22T04:18:41.928Z,8.73
2023-01-22T04:21:09.020Z,8.90
2023-01-22T04:23:35.731Z,8.50
2023-01-22T04:26:02.463Z,9.20
2023-01-22T04:28:29.397Z,8.40
2023-01-22T04:30:56.471Z,8.45
2023-01-22T04:33:23.376Z,7.97
2023-01-22T04:35:52.339Z,9.57
2023-01-22T04:38:19.069Z,8.00
2023-01-22T04:40:45.877Z,7.90
2023-01-22T04:43:12.685Z,8.30
2023-01-22T04:45:39.407Z,7.85
2023-01-22T04:48:08.373Z,9.02
2023-01-22T04:50:35.351Z,8.35
2023-01-22T04:53:02.857Z,8.02
2023-01-22T04:55:30.194Z,8.00
2023-01-22T04:57:58.765Z,8.20
2023-01-22T05:00:26.487Z,8.30
2023-01-22T05:02:57.985Z,7.82
2023-01-22T05:05:25.669Z,8.02
2023-01-22T05:07:52.847Z,8.43
2023-01-22T05:10:20.281Z,8.27
2023-01-22T05:12:49.122Z,7.88
2023-01-22T05:15:24.052Z,8.32
2023-01-22T05:17:52.386Z,8.15
2023-01-22T05:20:19.627Z,7.55
2023-01-22T05:22:46.611Z,8.07
2023-01-22T05:25:13.745Z,8.63
2023-01-22T05:27:40.508Z,8.20
2023-01-22T05:30:08.453Z,8.73
2023-01-22T05:32:35.222Z,8.35
2023-01-22T05:35:02.835Z,8.02
2023-01-22T05:37:31.904Z,8.20
2023-01-22T05:39:58.650Z,8.80
2023-01-22T05:42:25.381Z,9.32
2023-01-22T05:44:52.099Z,8.75
2023-01-22T05:47:18.820Z,9.23
2023-01-22T05:49:45.573Z,9.70
2023-01-22T05:52:12.285Z,9.73
2023-01-22T05:54:39.772Z,8.55
2023-01-22T05:57:06.970Z,11.00
2023-01-22T05:59:33.816Z,11.23
2023-01-22T06:02:00.854Z,9.68
2023-01-22T06:04:28.373Z,9.00
2023-01-22T06:06:55.127Z,8.93
2023-01-22T06:09:21.897Z,8.80
2023-01-22T06:11:48.655Z,8.55
2023-01-22T06:14:15.481Z,8.50
2023-01-22T06:16:42.298Z,8.65
2023-01-22T06:19:09.352Z,9.25
2023-01-22T06:21:36.160Z,8.10
2023-01-22T06:24:02.918Z,8.90
2023-01-22T06:26:29.690Z,8.88
2023-01-22T06:28:56.449Z,8.63
2023-01-22T06:31:23.299Z,9.10
2023-01-22T06:33:50.241Z,9.77
2023-01-22T06:36:17.018Z,10.43
2023-01-22T06:38:43.845Z,8.48
2023-01-22T06:41:11.010Z,8.77
2023-01-22T06:43:37.808Z,9.18
2023-01-22T06:46:05.146Z,8.82
2023-01-22T06:48:32.018Z,8.27
2023-01-22T06:51:00.155Z,9.10
2023-01-22T06:53:27.583Z,9.38
2023-01-22T06:55:54.591Z,9.95
2023-01-22T06:58:21.458Z,8.60
2023-01-22T07:00:48.196Z,9.38
2023-01-22T07:03:15.067Z,9.50
2023-01-22T07:05:42.121Z,9.32
2023-01-22T07:08:14.204Z,10.15
2023-01-22T07:10:41.652Z,9.00
2023-01-22T07:13:10.124Z,9.35
2023-01-22T07:15:36.891Z,9.48
2023-01-22T07:18:03.741Z,9.60
2023-01-22T07:20:30.483Z,10.38
2023-01-22T07:22:59.262Z,9.38
2023-01-22T07:25:27.573Z,8.43
2023-01-22T07:28:01.657Z,9.27
2023-01-22T07:30:29.622Z,9.68
2023-01-22T07:33:00.758Z,10.60
2023-01-22T07:35:28.620Z,9.80
2023-01-22T07:37:57.211Z,10.30
2023-01-22T07:40:24.829Z,10.05
2023-01-22T07:42:52.854Z,9.82
2023-01-22T07:45:20.200Z,9.55
2023-01-22T07:47:58.767Z,9.55
2023-01-22T07:50:29.393Z,9.73
2023-01-22T07:52:56.349Z,8.35
2023-01-22T07:55:23.867Z,9.20
2023-01-22T07:58:01.530Z,10.40
2023-01-22T08:00:28.581Z,10.32
2023-01-22T08:02:55.361Z,10.38
2023-01-22T08:05:22.219Z,9.20
2023-01-22T08:07:49.189Z,11.32
2023-01-22T08:10:17.109Z,10.38
2023-01-22T08:12:46.407Z,10.63
2023-01-22T08:15:14.140Z,10.48
2023-01-22T08:17:41.140Z,10.65
2023-01-22T08:20:09.250Z,9.93
2023-01-22T08:22:36.153Z,11.43
2023-01-22T08:25:02.953Z,10.57
2023-01-22T08:27:30.022Z,10.55
2023-01-22T08:29:56.781Z,11.40
2023-01-22T08:32:23.638Z,11.15
2023-01-22T08:34:54.087Z,11.05
2023-01-22T08:37:21.918Z,11.18
2023-01-22T08:39:48.688Z,11.88
2023-01-22T08:42:15.528Z,11.95
2023-01-22T08:44:42.322Z,10.07
2023-01-22T08:47:10.623Z,11.20
2023-01-22T08:49:37.407Z,11.68
2023-01-22T08:52:04.344Z,10.32
2023-01-22T08:54:31.029Z,10.18
2023-01-22T08:56:57.744Z,10.93
2023-01-22T08:59:24.488Z,10.20
2023-01-22T09:01:51.290Z,11.35
2023-01-22T09:04:19.681Z,10.10
2023-01-22T09:06:46.760Z,13.15
2023-01-22T09:09:13.600Z,10.52
2023-01-22T09:11:40.888Z,10.50
2023-01-22T09:14:09.732Z,10.45
2023-01-22T09:16:36.949Z,10.13
2023-01-22T09:19:04.441Z,10.60
2023-01-22T09:21:33.808Z,10.25
2023-01-22T09:24:00.887Z,10.07
2023-01-22T09:26:27.635Z,10.50
2023-01-22T09:28:54.432Z,10.07
2023-01-22T09:31:21.408Z,9.73
2023-01-22T09:33:48.162Z,9.90
2023-01-22T09:36:16.061Z,10.27
2023-01-22T09:38:44.338Z,10.75
2023-01-22T09:41:32.420Z,11.18
2023-01-22T09:44:10.782Z,10.32
2023-01-22T09:46:51.324Z,10.77
2023-01-22T09:49:25.647Z,11.20
2023-01-22T09:51:59.548Z,12.20
2023-01-22T09:54:29.421Z,12.80
2023-01-22T09:56:58.564Z,10.30
2023-01-22T09:59:50.924Z,9.70
2023-01-22T10:02:43.075Z,9.77
2023-01-22T10:05:20.241Z,9.88
2023-01-22T10:07:52.720Z,9.00
2023-01-22T10:10:22.840Z,9.65
2023-01-22T10:13:11.353Z,9.55
2023-01-22T10:15:38.581Z,8.50
2023-01-22T10:18:16.816Z,8.75
2023-01-22T10:20:43.987Z,8.98
2023-01-22T10:23:19.224Z,9.02
2023-01-22T10:25:46.759Z,8.50
2023-01-22T10:28:15.627Z,8.73
2023-01-22T10:30:47.886Z,10.27
2023-01-22T10:33:23.275Z,10.57
2023-01-22T10:35:52.630Z,10.55
2023-01-22T10:38:27.747Z,11.45
2023-01-22T10:41:02.345Z,8.93
2023-01-22T10:43:38.388Z,12.23
2023-01-22T10:46:13.178Z,12.48
2023-01-22T10:48:40.159Z,15.82
2023-01-22T10:51:20.955Z,12.23
2023-01-22T10:53:53.647Z,11.07
2023-01-22T10:56:31.406Z,12.07
2023-01-22T10:59:00.139Z,12.45
2023-01-22T11:01:36.084Z,15.35
2023-01-22T11:04:23.271Z,21.52
2023-01-22T11:07:11.735Z,14.27
2023-01-22T11:10:20.516Z,16.80
2023-01-22T11:12:53.043Z,11.38
2023-01-22T11:15:40.751Z,10.25
2023-01-22T11:18:08.084Z,9.98
2023-01-22T11:20:54.916Z,15.18
2023-01-22T11:23:35.238Z,10.55
2023-01-22T11:26:16.865Z,11.63
2023-01-22T11:29:05.170Z,10.32
2023-01-22T11:31:52.905Z,10.23
2023-01-22T11:34:39.195Z,9.82
2023-01-22T11:37:32.667Z,9.70
2023-01-22T11:40:28.595Z,10.10
2023-01-22T11:43:27.560Z,9.65
2023-01-22T11:45:54.996Z,9.63
2023-01-22T11:48:33.932Z,9.77
2023-01-22T11:51:22.847Z,10.88
2023-01-22T11:54:24.332Z,16.02
2023-01-22T11:57:32.721Z,10.70
2023-01-22T12:00:34.568Z,11.95
2023-01-22T12:03:20.817Z,9.95
2023-01-22T12:06:12.951Z,9.10
2023-01-22T12:08:51.393Z,9.90
2023-01-22T12:11:33.970Z,9.35
2023-01-22T12:14:35.221Z,12.18
2023-01-22T12:17:08.119Z,9.82
2023-01-22T12:19:51.321Z,9.45
2023-01-22T12:22:45.886Z,8.55
2023-01-22T12:25:31.907Z,10.27
2023-01-22T12:28:29.533Z,9.75
2023-01-22T12:31:10.937Z,9.15
2023-01-22T12:33:41.801Z,9.77
2023-01-22T12:36:13.303Z,9.35
2023-01-22T12:39:12.878Z,9.50
2023-01-22T12:42:20.784Z,9.75
2023-01-22T12:44:57.622Z,10.50
2023-01-22T12:47:48.121Z,10.27
2023-01-22T12:50:24.084Z,9.73
2023-01-22T12:53:21.194Z,9.43
2023-01-22T12:56:02.392Z,9.30
2023-01-22T12:58:32.703Z,9.50
2023-01-22T13:01:11.522Z,14.95
2023-01-22T13:03:40.541Z,12.70
2023-01-22T13:06:34.796Z,9.27
2023-01-22T13:09:02.918Z,14.13
2023-01-22T13:11:35.623Z,10.40
2023-01-22T13:14:21.320Z,12.70
2023-01-22T13:17:03.596Z,10.10
2023-01-22T13:19:39.997Z,10.10
2023-01-22T13:22:11.052Z,10.00
2023-01-22T13:24:51.202Z,10.57
2023-01-22T13:27:36.674Z,9.52
2023-01-22T13:30:27.883Z,10.05
2023-01-22T13:33:15.644Z,9.50
2023-01-22T13:35:47.095Z,11.82
2023-01-22T13:38:35.275Z,10.55
2023-01-22T13:41:10.980Z,12.25
2023-01-22T13:43:39.329Z,11.52
2023-01-22T13:46:06.912Z,10.60
2023-01-22T13:48:33.667Z,9.50
2023-01-22T13:51:07.142Z,9.77
2023-01-22T13:53:42.724Z,8.45
2023-01-22T13:56:21.092Z,8.70
2023-01-22T13:58:49.564Z,9.07
2023-01-22T14:01:29.981Z,10.10
2023-01-22T14:04:01.645Z,9.70
2023-01-22T14:06:29.870Z,9.77
2023-01-22T14:08:57.804Z,9.38
2023-01-22T14:11:24.604Z,9.52
2023-01-22T14:13:53.041Z,8.73
2023-01-22T14:16:20.227Z,8.90
2023-01-22T14:18:47.001Z,9.85
2023-01-22T14:21:14.260Z,10.40
2023-01-22T14:23:42.610Z,9.18
2023-01-22T14:26:09.869Z,9.57
2023-01-22T14:28:37.164Z,9.10
2023-01-22T14:31:04.187Z,10.10
2023-01-22T14:33:33.077Z,10.05
2023-01-22T14:36:00.208Z,9.18
2023-01-22T14:38:28.019Z,9.27
2023-01-22T14:40:55.027Z,12.77
2023-01-22T14:43:21.823Z,16.58
2023-01-22T14:45:48.716Z,16.95
2023-01-22T14:48:19.107Z,12.80
2023-01-22T14:50:46.265Z,14.57
2023-01-22T14:53:14.377Z,11.05
2023-01-22T14:55:42.570Z,9.35
2023-01-22T14:58:10.260Z,9.20
2023-01-22T15:00:37.891Z,13.52
2023-01-22T15:03:05.087Z,13.77
2023-01-22T15:05:34.020Z,10.05
2023-01-22T15:08:02.264Z,9.25
2023-01-22T15:10:29.515Z,9.77
2023-01-22T15:12:56.334Z,10.95
2023-01-22T15:15:26.885Z,10.63
2023-01-22T15:17:54.821Z,10.45
2023-01-22T15:20:21.837Z,10.80
2023-01-22T15:22:49.761Z,10.38
2023-01-22T15:25:16.822Z,11.48
2023-01-22T15:27:44.534Z,10.15
2023-01-22T15:30:13.515Z,9.85
2023-01-22T15:32:41.172Z,9.45
2023-01-22T15:35:08.511Z,9.07
2023-01-22T15:37:36.140Z,9.35
2023-01-22T15:40:04.562Z,9.07
2023-01-22T15:42:32.321Z,9.57
2023-01-22T15:44:59.276Z,8.68
2023-01-22T15:47:26.242Z,9.38
2023-01-22T15:49:52.993Z,9.63
2023-01-22T15:52:20.102Z,9.23
2023-01-22T15:54:46.865Z,9.38
2023-01-22T15:57:14.359Z,7.90
2023-01-22T15:59:42.074Z,9.65
2023-01-22T16:02:12.163Z,9.10
2023-01-22T16:04:38.951Z,9.00
2023-01-22T16:07:05.699Z,9.13
2023-01-22T16:09:32.472Z,9.43
2023-01-22T16:11:59.208Z,8.98
2023-01-22T16:14:28.018Z,9.45
2023-01-22T16:16:55.125Z,10.45
2023-01-22T16:19:22.167Z,10.15
2023-01-22T16:21:49.001Z,11.20
2023-01-22T16:24:15.763Z,10.48
2023-01-22T16:26:42.504Z,10.80
2023-01-22T16:29:10.892Z,11.60
2023-01-22T16:31:38.183Z,10.55
2023-01-22T16:34:14.598Z,10.23
2023-01-22T16:36:43.069Z,9.82
2023-01-22T16:39:20.168Z,10.18
2023-01-22T16:41:48.979Z,10.80
2023-01-22T16:44:18.118Z,10.73
2023-01-22T16:46:47.549Z,9.30
2023-01-22T16:49:20.297Z,9.95
2023-01-22T16:51:49.346Z,10.00
2023-01-22T16:54:29.093Z,8.80
2023-01-22T16:56:57.393Z,8.95
2023-01-22T16:59:26.955Z,9.32
2023-01-22T17:01:55.555Z,9.55
2023-01-22T17:04:22.316Z,7.95
2023-01-22T17:06:51.797Z,9.63
2023-01-22T17:09:21.595Z,8.23
2023-01-22T17:11:50.907Z,9.55
2023-01-22T17:14:19.726Z,9.57
2023-01-22T17:16:46.664Z,8.95
2023-01-22T17:19:13.784Z,8.20
2023-01-22T17:21:41.447Z,8.13
2023-01-22T17:24:12.874Z,9.32
2023-01-22T17:26:42.000Z,7.90
2023-01-22T17:29:09.521Z,8.48
2023-01-22T17:31:36.911Z,8.18
2023-01-22T17:34:04.117Z,8.20
2023-01-22T17:36:31.483Z,8.55
2023-01-22T17:38:58.334Z,8.25
2023-01-22T17:41:26.198Z,7.57
2023-01-22T17:43:55.268Z,8.95
2023-01-22T17:46:25.116Z,7.80
2023-01-22T17:48:52.952Z,8.63
2023-01-22T17:51:26.716Z,9.13
2023-01-22T17:53:55.134Z,10.07
2023-01-22T17:56:24.411Z,9.75
2023-01-22T17:58:54.442Z,9.45
2023-01-22T18:01:27.945Z,9.70
2023-01-22T18:03:59.716Z,8.32
2023-01-22T18:06:28.263Z,7.90
2023-01-22T18:08:55.649Z,8.63
2023-01-22T18:11:27.575Z,9.20
2023-01-22T18:14:01.055Z,8.33
2023-01-22T18:16:31.071Z,8.02
2023-01-22T18:18:59.766Z,8.23
2023-01-22T18:21:27.008Z,7.45
2023-01-22T18:23:53.874Z,8.50
2023-01-22T18:26:23.038Z,8.48
2023-01-22T18:28:50.582Z,7.65
2023-01-22T18:31:22.200Z,7.80
2023-01-22T18:33:51.095Z,9.20
2023-01-22T18:36:32.671Z,7.68
2023-01-22T18:39:01.411Z,7.68
2023-01-22T18:41:28.985Z,8.15
2023-01-22T18:43:58.683Z,8.00
2023-01-22T18:46:28.292Z,8.63
2023-01-22T18:48:58.769Z,8.68
2023-01-22T18:51:28.019Z,8.85
2023-01-22T18:53:55.974Z,9.43
2023-01-22T18:56:22.899Z,8.93
2023-01-22T18:58:53.958Z,8.70
2023-01-22T19:01:26.529Z,9.20
2023-01-22T19:03:59.690Z,9.18
2023-01-22T19:06:29.388Z,9.73
2023-01-22T19:09:02.493Z,8.93
2023-01-22T19:11:35.065Z,8.05
2023-01-22T19:14:05.534Z,8.45
2023-01-22T19:16:33.140Z,8.05
2023-01-22T19:19:07.663Z,8.00
2023-01-22T19:21:34.463Z,9.20
2023-01-22T19:24:02.303Z,9.48
2023-01-22T19:26:32.536Z,9.20
2023-01-22T19:29:08.854Z,8.70
2023-01-22T19:31:38.433Z,8.82
2023-01-22T19:34:06.527Z,9.68
2023-01-22T19:36:38.194Z,9.27
2023-01-22T19:39:25.711Z,9.32
2023-01-22T19:41:52.503Z,8.65
2023-01-22T19:44:19.908Z,8.90
2023-01-22T19:46:47.011Z,8.38
2023-01-22T19:49:15.611Z,7.70
2023-01-22T19:51:42.990Z,9.43
2023-01-22T19:54:10.298Z,8.35
2023-01-22T19:56:38.565Z,8.40
2023-01-22T19:59:08.101Z,9.85
2023-01-22T20:01:36.882Z,9.00
2023-01-22T20:04:23.327Z,8.73
2023-01-22T20:06:54.630Z,9.13
2023-01-22T20:09:22.227Z,8.73
2023-01-22T20:11:53.826Z,9.23
2023-01-22T20:14:43.255Z,8.70
2023-01-22T20:17:30.537Z,8.85
2023-01-22T20:19:57.325Z,8.55
2023-01-22T20:22:24.215Z,8.40
2023-01-22T20:24:51.468Z,7.78
2023-01-22T20:27:18.224Z,7.60
2023-01-22T20:29:45.092Z,7.65
2023-01-22T20:32:12.410Z,7.90
2023-01-22T20:34:41.944Z,8.77
2023-01-22T20:37:08.979Z,8.38
2023-01-22T20:39:37.066Z,8.45
2023-01-22T20:42:04.621Z,8.23
2023-01-22T20:44:34.008Z,9.35
2023-01-22T20:47:01.665Z,8.65
2023-01-22T20:49:29.555Z,8.45
2023-01-22T20:51:57.179Z,9.52
2023-01-22T20:54:24.482Z,8.20
2023-01-22T20:56:52.417Z,9.15
2023-01-22T20:59:19.787Z,7.82
2023-01-22T21:01:47.035Z,8.18
2023-01-22T21:04:15.431Z,8.50
2023-01-22T21:06:42.763Z,8.63
2023-01-22T21:09:10.720Z,8.18
2023-01-22T21:11:39.664Z,7.82
2023-01-22T21:14:07.887Z,9.35
2023-01-22T21:16:37.565Z,8.82
2023-01-22T21:19:08.605Z,9.88
2023-01-22T21:21:36.138Z,10.00
2023-01-22T21:24:03.724Z,8.23
2023-01-22T21:26:32.246Z,10.15
2023-01-22T21:29:05.574Z,9.65
2023-01-22T21:31:32.490Z,8.70
2023-01-22T21:34:04.094Z,9.00
2023-01-22T21:36:35.923Z,8.60
2023-01-22T21:39:05.529Z,9.52
2023-01-22T21:41:33.635Z,8.93
2023-01-22T21:44:19.918Z,9.05
2023-01-22T21:46:47.640Z,8.40
2023-01-22T21:49:25.368Z,9.50
2023-01-22T21:51:55.732Z,9.65
2023-01-22T21:54:34.776Z,9.20
2023-01-22T21:57:02.834Z,9.95
2023-01-22T21:59:29.904Z,9.45
2023-01-22T22:01:57.015Z,8.60
2023-01-22T22:04:26.902Z,9.95
2023-01-22T22:06:54.337Z,9.35
2023-01-22T22:09:24.641Z,9.07
2023-01-22T22:11:54.970Z,8.98
2023-01-22T22:14:22.720Z,8.55
2023-01-22T22:16:50.102Z,8.50
2023-01-22T22:19:18.537Z,9.27
2023-01-22T22:21:45.752Z,9.75
2023-01-22T22:24:12.911Z,8.43
2023-01-22T22:26:40.175Z,8.70
2023-01-22T22:29:08.606Z,8.90
2023-01-22T22:31:36.312Z,8.98
2023-01-22T22:34:03.245Z,8.52
2023-01-22T22:36:31.924Z,8.30
2023-01-22T22:39:00.441Z,9.18
2023-01-22T22:41:31.047Z,9.88
2023-01-22T22:43:58.438Z,9.38
2023-01-22T22:46:29.596Z,8.52
2023-01-22T22:48:59.654Z,9.35
2023-01-22T22:51:30.282Z,8.77
2023-01-22T22:53:59.893Z,8.68
2023-01-22T22:56:28.032Z,8.35
2023-01-22T22:58:55.787Z,8.48
2023-01-22T23:01:25.439Z,8.77
2023-01-22T23:03:53.549Z,8.77
2023-01-22T23:06:26.167Z,8.50
2023-01-22T23:08:55.044Z,8.38
2023-01-22T23:11:28.166Z,9.15
2023-01-22T23:14:01.059Z,9.20
2023-01-22T23:16:30.518Z,9.15
2023-01-22T23:18:59.787Z,8.73
2023-01-22T23:21:28.218Z,8.07
2023-01-22T23:23:55.978Z,8.75
2023-01-22T23:26:28.190Z,9.30
2023-01-22T23:28:57.876Z,8.57
2023-01-22T23:31:26.075Z,9.20
2023-01-22T23:33:54.651Z,10.05
2023-01-22T23:36:22.302Z,8.55
2023-01-22T23:38:49.168Z,9.40
2023-01-22T23:41:17.734Z,9.45
2023-01-22T23:43:44.867Z,11.05
2023-01-22T23:46:14.589Z,9.00
2023-01-22T23:48:41.931Z,11.27
2023-01-22T23:51:10.391Z,10.35
2023-01-22T23:53:42.375Z,10.70
2023-01-22T23:56:12.012Z,11.38
2023-01-22T23:58:38.864Z,10.95
